sensor_id;sensor_type;location;lat;lon;timestamp;P1;durP1;ratioP1;P2;durP2;ratioP2
18748;SDS011;9503;53.560;10.246;2022-08-30T00:02:12;2.08;;;1.35;;
18748;SDS011;9503;53.560;10.246;2022-08-30T00:04:39;2.55;;;1.65;;
18748;SDS011;9503;53.560;10.246;2022-08-30T00:07:06;2.20;;;1.60;;
18748;SDS011;9503;53.560;10.246;2022-08-30T00:09:33;5.97;;;1.60;;
18748;SDS011;9503;53.560;10.246;2022-08-30T00:12:00;5.07;;;1.70;;
18748;SDS011;9503;53.560;10.246;2022-08-30T00:14:29;1.88;;;1.70;;
18748;SDS011;9503;53.560;10.246;2022-08-30T00:16:57;3.47;;;1.50;;
18748;SDS011;9503;53.560;10.246;2022-08-30T00:19:26;2.30;;;1.92;;
18748;SDS011;9503;53.560;10.246;2022-08-30T00:21:55;3.50;;;1.90;;
18748;SDS011;9503;53.560;10.246;2022-08-30T00:24:22;2.60;;;1.80;;
18748;SDS011;9503;53.560;10.246;2022-08-30T00:26:49;2.85;;;1.75;;
18748;SDS011;9503;53.560;10.246;2022-08-30T00:29:16;2.72;;;1.58;;
18748;SDS011;9503;53.560;10.246;2022-08-30T00:31:43;1.95;;;1.60;;
18748;SDS011;9503;53.560;10.246;2022-08-30T00:34:09;2.70;;;1.67;;
18748;SDS011;9503;53.560;10.246;2022-08-30T00:36:38;3.80;;;1.90;;
18748;SDS011;9503;53.560;10.246;2022-08-30T00:39:05;1.55;;;1.45;;
18748;SDS011;9503;53.560;10.246;2022-08-30T00:41:32;1.50;;;1.40;;
18748;SDS011;9503;53.560;10.246;2022-08-30T00:43:59;3.50;;;1.75;;
18748;SDS011;9503;53.560;10.246;2022-08-30T00:46:26;2.55;;;1.85;;
18748;SDS011;9503;53.560;10.246;2022-08-30T00:48:52;2.70;;;1.80;;
18748;SDS011;9503;53.560;10.246;2022-08-30T00:51:21;4.18;;;1.90;;
18748;SDS011;9503;53.560;10.246;2022-08-30T00:53:52;1.52;;;1.42;;
18748;SDS011;9503;53.560;10.246;2022-08-30T00:56:22;2.85;;;1.60;;
18748;SDS011;9503;53.560;10.246;2022-08-30T00:58:51;2.55;;;1.73;;
18748;SDS011;9503;53.560;10.246;2022-08-30T01:01:22;1.80;;;1.50;;
18748;SDS011;9503;53.560;10.246;2022-08-30T01:03:49;1.73;;;1.63;;
18748;SDS011;9503;53.560;10.246;2022-08-30T01:06:17;3.50;;;1.63;;
18748;SDS011;9503;53.560;10.246;2022-08-30T01:08:45;1.85;;;1.63;;
18748;SDS011;9503;53.560;10.246;2022-08-30T01:11:14;2.65;;;1.63;;
18748;SDS011;9503;53.560;10.246;2022-08-30T01:13:43;2.65;;;1.70;;
18748;SDS011;9503;53.560;10.246;2022-08-30T01:16:11;5.70;;;1.90;;
18748;SDS011;9503;53.560;10.246;2022-08-30T01:18:38;2.28;;;1.60;;
18748;SDS011;9503;53.560;10.246;2022-08-30T01:21:07;2.42;;;1.88;;
18748;SDS011;9503;53.560;10.246;2022-08-30T01:23:43;4.78;;;1.63;;
18748;SDS011;9503;53.560;10.246;2022-08-30T01:26:11;4.97;;;1.80;;
18748;SDS011;9503;53.560;10.246;2022-08-30T01:28:39;4.10;;;1.90;;
18748;SDS011;9503;53.560;10.246;2022-08-30T01:31:07;3.63;;;1.83;;
18748;SDS011;9503;53.560;10.246;2022-08-30T01:33:34;3.20;;;1.77;;
18748;SDS011;9503;53.560;10.246;2022-08-30T01:36:03;2.22;;;1.50;;
18748;SDS011;9503;53.560;10.246;2022-08-30T01:38:35;3.30;;;1.95;;
18748;SDS011;9503;53.560;10.246;2022-08-30T01:41:10;2.08;;;1.70;;
18748;SDS011;9503;53.560;10.246;2022-08-30T01:43:38;2.90;;;1.67;;
18748;SDS011;9503;53.560;10.246;2022-08-30T01:46:05;3.08;;;1.60;;
18748;SDS011;9503;53.560;10.246;2022-08-30T01:48:32;2.53;;;1.60;;
18748;SDS011;9503;53.560;10.246;2022-08-30T01:50:59;1.63;;;1.35;;
18748;SDS011;9503;53.560;10.246;2022-08-30T01:53:26;4.75;;;1.60;;
18748;SDS011;9503;53.560;10.246;2022-08-30T01:55:53;2.03;;;1.70;;
18748;SDS011;9503;53.560;10.246;2022-08-30T01:58:21;3.60;;;1.85;;
18748;SDS011;9503;53.560;10.246;2022-08-30T02:00:48;3.53;;;1.88;;
18748;SDS011;9503;53.560;10.246;2022-08-30T02:03:16;1.63;;;1.50;;
18748;SDS011;9503;53.560;10.246;2022-08-30T02:05:43;3.25;;;1.58;;
18748;SDS011;9503;53.560;10.246;2022-08-30T02:08:10;2.30;;;1.70;;
18748;SDS011;9503;53.560;10.246;2022-08-30T02:10:37;4.30;;;1.55;;
18748;SDS011;9503;53.560;10.246;2022-08-30T02:13:04;2.90;;;1.40;;
18748;SDS011;9503;53.560;10.246;2022-08-30T02:15:31;2.28;;;1.90;;
18748;SDS011;9503;53.560;10.246;2022-08-30T02:17:59;3.03;;;1.70;;
18748;SDS011;9503;53.560;10.246;2022-08-30T02:20:25;1.92;;;1.60;;
18748;SDS011;9503;53.560;10.246;2022-08-30T02:22:52;4.05;;;1.40;;
18748;SDS011;9503;53.560;10.246;2022-08-30T02:25:19;3.92;;;2.10;;
18748;SDS011;9503;53.560;10.246;2022-08-30T02:27:45;6.25;;;1.65;;
18748;SDS011;9503;53.560;10.246;2022-08-30T02:30:12;3.55;;;1.60;;
18748;SDS011;9503;53.560;10.246;2022-08-30T02:32:40;4.88;;;1.67;;
18748;SDS011;9503;53.560;10.246;2022-08-30T02:35:07;1.70;;;1.58;;
18748;SDS011;9503;53.560;10.246;2022-08-30T02:37:34;5.03;;;1.70;;
18748;SDS011;9503;53.560;10.246;2022-08-30T02:40:01;2.28;;;1.73;;
18748;SDS011;9503;53.560;10.246;2022-08-30T02:42:30;3.00;;;1.42;;
18748;SDS011;9503;53.560;10.246;2022-08-30T02:44:56;3.65;;;1.70;;
18748;SDS011;9503;53.560;10.246;2022-08-30T02:47:23;2.85;;;1.90;;
18748;SDS011;9503;53.560;10.246;2022-08-30T02:49:51;2.58;;;1.67;;
18748;SDS011;9503;53.560;10.246;2022-08-30T02:52:18;3.10;;;1.55;;
18748;SDS011;9503;53.560;10.246;2022-08-30T02:54:45;1.80;;;1.70;;
18748;SDS011;9503;53.560;10.246;2022-08-30T02:57:11;5.63;;;1.80;;
18748;SDS011;9503;53.560;10.246;2022-08-30T02:59:41;3.00;;;1.70;;
18748;SDS011;9503;53.560;10.246;2022-08-30T03:02:10;2.20;;;1.60;;
18748;SDS011;9503;53.560;10.246;2022-08-30T03:04:37;3.90;;;1.70;;
18748;SDS011;9503;53.560;10.246;2022-08-30T03:07:06;1.83;;;1.60;;
18748;SDS011;9503;53.560;10.246;2022-08-30T03:09:33;2.63;;;1.65;;
18748;SDS011;9503;53.560;10.246;2022-08-30T03:12:00;1.92;;;1.63;;
18748;SDS011;9503;53.560;10.246;2022-08-30T03:14:29;2.60;;;1.88;;
18748;SDS011;9503;53.560;10.246;2022-08-30T03:16:56;2.47;;;1.67;;
18748;SDS011;9503;53.560;10.246;2022-08-30T03:19:23;2.92;;;1.80;;
18748;SDS011;9503;53.560;10.246;2022-08-30T03:21:50;3.53;;;1.70;;
18748;SDS011;9503;53.560;10.246;2022-08-30T03:24:18;3.30;;;1.85;;
18748;SDS011;9503;53.560;10.246;2022-08-30T03:26:46;4.05;;;2.10;;
18748;SDS011;9503;53.560;10.246;2022-08-30T03:29:13;3.20;;;1.80;;
18748;SDS011;9503;53.560;10.246;2022-08-30T03:31:40;2.60;;;1.88;;
18748;SDS011;9503;53.560;10.246;2022-08-30T03:34:08;1.67;;;1.50;;
18748;SDS011;9503;53.560;10.246;2022-08-30T03:36:36;1.83;;;1.73;;
18748;SDS011;9503;53.560;10.246;2022-08-30T03:39:03;2.90;;;1.80;;
18748;SDS011;9503;53.560;10.246;2022-08-30T03:41:32;2.05;;;1.75;;
18748;SDS011;9503;53.560;10.246;2022-08-30T03:44:00;4.03;;;1.85;;
18748;SDS011;9503;53.560;10.246;2022-08-30T03:46:34;2.72;;;1.75;;
18748;SDS011;9503;53.560;10.246;2022-08-30T03:49:03;1.75;;;1.65;;
18748;SDS011;9503;53.560;10.246;2022-08-30T03:51:30;1.95;;;1.70;;
18748;SDS011;9503;53.560;10.246;2022-08-30T03:53:57;3.33;;;1.92;;
18748;SDS011;9503;53.560;10.246;2022-08-30T03:56:24;7.30;;;1.92;;
18748;SDS011;9503;53.560;10.246;2022-08-30T03:58:52;1.77;;;1.50;;
18748;SDS011;9503;53.560;10.246;2022-08-30T04:01:19;4.07;;;1.80;;
18748;SDS011;9503;53.560;10.246;2022-08-30T04:03:46;1.90;;;1.80;;
18748;SDS011;9503;53.560;10.246;2022-08-30T04:06:13;3.58;;;2.08;;
18748;SDS011;9503;53.560;10.246;2022-08-30T04:08:39;2.60;;;2.03;;
18748;SDS011;9503;53.560;10.246;2022-08-30T04:11:07;3.42;;;1.58;;
18748;SDS011;9503;53.560;10.246;2022-08-30T04:13:35;2.42;;;2.22;;
18748;SDS011;9503;53.560;10.246;2022-08-30T04:16:03;3.55;;;1.70;;
18748;SDS011;9503;53.560;10.246;2022-08-30T04:18:30;3.53;;;1.75;;
18748;SDS011;9503;53.560;10.246;2022-08-30T04:20:57;2.10;;;1.65;;
18748;SDS011;9503;53.560;10.246;2022-08-30T04:23:26;2.60;;;1.63;;
18748;SDS011;9503;53.560;10.246;2022-08-30T04:25:54;2.78;;;1.90;;
18748;SDS011;9503;53.560;10.246;2022-08-30T04:28:22;2.17;;;1.80;;
18748;SDS011;9503;53.560;10.246;2022-08-30T04:30:50;1.50;;;1.40;;
18748;SDS011;9503;53.560;10.246;2022-08-30T04:33:18;1.92;;;1.63;;
18748;SDS011;9503;53.560;10.246;2022-08-30T04:35:45;3.53;;;2.00;;
18748;SDS011;9503;53.560;10.246;2022-08-30T04:38:15;4.43;;;1.80;;
18748;SDS011;9503;53.560;10.246;2022-08-30T04:40:43;6.22;;;1.95;;
18748;SDS011;9503;53.560;10.246;2022-08-30T04:43:12;3.53;;;1.77;;
18748;SDS011;9503;53.560;10.246;2022-08-30T04:45:39;1.67;;;1.30;;
18748;SDS011;9503;53.560;10.246;2022-08-30T04:48:07;11.38;;;1.98;;
18748;SDS011;9503;53.560;10.246;2022-08-30T04:50:35;4.53;;;1.77;;
18748;SDS011;9503;53.560;10.246;2022-08-30T04:53:02;3.67;;;1.90;;
18748;SDS011;9503;53.560;10.246;2022-08-30T04:55:31;3.03;;;1.73;;
18748;SDS011;9503;53.560;10.246;2022-08-30T04:57:58;1.95;;;1.77;;
18748;SDS011;9503;53.560;10.246;2022-08-30T05:00:25;2.40;;;1.60;;
18748;SDS011;9503;53.560;10.246;2022-08-30T05:02:51;4.30;;;1.65;;
18748;SDS011;9503;53.560;10.246;2022-08-30T05:05:19;3.08;;;1.60;;
18748;SDS011;9503;53.560;10.246;2022-08-30T05:08:04;2.03;;;1.40;;
18748;SDS011;9503;53.560;10.246;2022-08-30T05:10:32;3.92;;;1.80;;
18748;SDS011;9503;53.560;10.246;2022-08-30T05:12:59;2.97;;;1.75;;
18748;SDS011;9503;53.560;10.246;2022-08-30T05:15:28;2.75;;;1.92;;
18748;SDS011;9503;53.560;10.246;2022-08-30T05:17:55;2.45;;;1.80;;
18748;SDS011;9503;53.560;10.246;2022-08-30T05:20:21;6.85;;;2.33;;
18748;SDS011;9503;53.560;10.246;2022-08-30T05:22:48;3.08;;;1.90;;
18748;SDS011;9503;53.560;10.246;2022-08-30T05:25:17;2.75;;;1.67;;
18748;SDS011;9503;53.560;10.246;2022-08-30T05:27:45;2.88;;;1.60;;
18748;SDS011;9503;53.560;10.246;2022-08-30T05:30:13;3.80;;;1.65;;
18748;SDS011;9503;53.560;10.246;2022-08-30T05:32:41;3.00;;;1.60;;
18748;SDS011;9503;53.560;10.246;2022-08-30T05:35:11;3.22;;;1.92;;
18748;SDS011;9503;53.560;10.246;2022-08-30T05:37:39;2.17;;;1.85;;
18748;SDS011;9503;53.560;10.246;2022-08-30T05:40:06;3.67;;;1.70;;
18748;SDS011;9503;53.560;10.246;2022-08-30T05:42:36;2.70;;;1.70;;
18748;SDS011;9503;53.560;10.246;2022-08-30T05:45:04;5.60;;;1.80;;
18748;SDS011;9503;53.560;10.246;2022-08-30T05:47:32;2.55;;;1.90;;
18748;SDS011;9503;53.560;10.246;2022-08-30T05:49:58;1.63;;;1.52;;
18748;SDS011;9503;53.560;10.246;2022-08-30T05:52:25;2.22;;;1.50;;
18748;SDS011;9503;53.560;10.246;2022-08-30T05:54:52;1.75;;;1.65;;
18748;SDS011;9503;53.560;10.246;2022-08-30T05:57:23;3.05;;;1.67;;
18748;SDS011;9503;53.560;10.246;2022-08-30T05:59:51;1.75;;;1.48;;
18748;SDS011;9503;53.560;10.246;2022-08-30T06:02:18;1.40;;;1.30;;
18748;SDS011;9503;53.560;10.246;2022-08-30T06:04:44;3.35;;;1.70;;
18748;SDS011;9503;53.560;10.246;2022-08-30T06:07:11;4.93;;;1.73;;
18748;SDS011;9503;53.560;10.246;2022-08-30T06:09:37;2.80;;;1.80;;
18748;SDS011;9503;53.560;10.246;2022-08-30T06:12:04;1.52;;;1.42;;
18748;SDS011;9503;53.560;10.246;2022-08-30T06:14:31;3.20;;;1.67;;
18748;SDS011;9503;53.560;10.246;2022-08-30T06:16:59;2.17;;;1.60;;
18748;SDS011;9503;53.560;10.246;2022-08-30T06:19:28;3.95;;;1.70;;
18748;SDS011;9503;53.560;10.246;2022-08-30T06:21:55;2.13;;;1.52;;
18748;SDS011;9503;53.560;10.246;2022-08-30T06:24:22;1.70;;;1.55;;
18748;SDS011;9503;53.560;10.246;2022-08-30T06:26:49;2.72;;;1.67;;
18748;SDS011;9503;53.560;10.246;2022-08-30T06:29:18;3.38;;;1.60;;
18748;SDS011;9503;53.560;10.246;2022-08-30T06:31:45;1.92;;;1.70;;
18748;SDS011;9503;53.560;10.246;2022-08-30T06:34:14;2.60;;;1.80;;
18748;SDS011;9503;53.560;10.246;2022-08-30T06:36:41;3.40;;;1.63;;
18748;SDS011;9503;53.560;10.246;2022-08-30T06:39:08;7.28;;;2.35;;
18748;SDS011;9503;53.560;10.246;2022-08-30T06:41:37;1.95;;;1.60;;
18748;SDS011;9503;53.560;10.246;2022-08-30T06:44:05;1.65;;;1.50;;
18748;SDS011;9503;53.560;10.246;2022-08-30T06:46:34;2.20;;;1.60;;
18748;SDS011;9503;53.560;10.246;2022-08-30T06:49:03;2.30;;;1.75;;
18748;SDS011;9503;53.560;10.246;2022-08-30T06:51:37;3.50;;;1.63;;
18748;SDS011;9503;53.560;10.246;2022-08-30T06:54:05;6.60;;;2.00;;
18748;SDS011;9503;53.560;10.246;2022-08-30T06:56:33;3.53;;;1.60;;
18748;SDS011;9503;53.560;10.246;2022-08-30T06:59:00;1.63;;;1.52;;
18748;SDS011;9503;53.560;10.246;2022-08-30T07:01:27;2.53;;;1.75;;
18748;SDS011;9503;53.560;10.246;2022-08-30T07:03:55;2.58;;;1.75;;
18748;SDS011;9503;53.560;10.246;2022-08-30T07:06:23;2.88;;;1.70;;
18748;SDS011;9503;53.560;10.246;2022-08-30T07:08:52;4.32;;;1.58;;
18748;SDS011;9503;53.560;10.246;2022-08-30T07:11:25;3.08;;;1.85;;
18748;SDS011;9503;53.560;10.246;2022-08-30T07:13:55;2.53;;;1.63;;
18748;SDS011;9503;53.560;10.246;2022-08-30T07:16:23;4.55;;;1.83;;
18748;SDS011;9503;53.560;10.246;2022-08-30T07:18:51;2.72;;;1.67;;
18748;SDS011;9503;53.560;10.246;2022-08-30T07:21:21;2.03;;;1.70;;
18748;SDS011;9503;53.560;10.246;2022-08-30T07:23:54;3.08;;;1.60;;
18748;SDS011;9503;53.560;10.246;2022-08-30T07:26:24;3.83;;;1.92;;
18748;SDS011;9503;53.560;10.246;2022-08-30T07:28:53;3.03;;;1.50;;
18748;SDS011;9503;53.560;10.246;2022-08-30T07:31:20;1.40;;;1.30;;
18748;SDS011;9503;53.560;10.246;2022-08-30T07:33:49;1.52;;;1.42;;
18748;SDS011;9503;53.560;10.246;2022-08-30T07:36:16;1.65;;;1.50;;
18748;SDS011;9503;53.560;10.246;2022-08-30T07:38:45;2.00;;;1.17;;
18748;SDS011;9503;53.560;10.246;2022-08-30T07:41:19;1.70;;;1.30;;
18748;SDS011;9503;53.560;10.246;2022-08-30T07:43:48;2.13;;;1.90;;
18748;SDS011;9503;53.560;10.246;2022-08-30T07:46:16;1.58;;;1.45;;
18748;SDS011;9503;53.560;10.246;2022-08-30T07:48:45;1.95;;;1.40;;
18748;SDS011;9503;53.560;10.246;2022-08-30T07:51:13;3.50;;;1.30;;
18748;SDS011;9503;53.560;10.246;2022-08-30T07:53:41;1.95;;;1.45;;
18748;SDS011;9503;53.560;10.246;2022-08-30T07:56:08;1.67;;;1.58;;
18748;SDS011;9503;53.560;10.246;2022-08-30T07:58:36;1.50;;;1.20;;
18748;SDS011;9503;53.560;10.246;2022-08-30T08:01:03;1.77;;;1.35;;
18748;SDS011;9503;53.560;10.246;2022-08-30T08:03:31;2.08;;;1.40;;
18748;SDS011;9503;53.560;10.246;2022-08-30T08:05:59;3.28;;;1.50;;
18748;SDS011;9503;53.560;10.246;2022-08-30T08:08:27;2.00;;;1.27;;
18748;SDS011;9503;53.560;10.246;2022-08-30T08:10:54;2.05;;;1.50;;
18748;SDS011;9503;53.560;10.246;2022-08-30T08:13:21;1.55;;;1.45;;
18748;SDS011;9503;53.560;10.246;2022-08-30T08:15:49;1.83;;;1.40;;
18748;SDS011;9503;53.560;10.246;2022-08-30T08:18:16;1.70;;;1.40;;
18748;SDS011;9503;53.560;10.246;2022-08-30T08:20:43;4.85;;;1.58;;
18748;SDS011;9503;53.560;10.246;2022-08-30T08:23:09;3.45;;;1.65;;
18748;SDS011;9503;53.560;10.246;2022-08-30T08:25:39;3.60;;;1.38;;
18748;SDS011;9503;53.560;10.246;2022-08-30T08:28:07;3.58;;;1.60;;
18748;SDS011;9503;53.560;10.246;2022-08-30T08:30:34;1.50;;;1.40;;
18748;SDS011;9503;53.560;10.246;2022-08-30T08:33:04;2.20;;;1.17;;
18748;SDS011;9503;53.560;10.246;2022-08-30T08:35:32;3.67;;;1.25;;
18748;SDS011;9503;53.560;10.246;2022-08-30T08:37:59;2.28;;;1.25;;
18748;SDS011;9503;53.560;10.246;2022-08-30T08:40:26;2.80;;;1.20;;
18748;SDS011;9503;53.560;10.246;2022-08-30T08:42:58;1.25;;;1.15;;
18748;SDS011;9503;53.560;10.246;2022-08-30T08:45:37;1.35;;;1.25;;
18748;SDS011;9503;53.560;10.246;2022-08-30T08:48:17;1.33;;;1.20;;
18748;SDS011;9503;53.560;10.246;2022-08-30T08:50:54;4.28;;;1.25;;
18748;SDS011;9503;53.560;10.246;2022-08-30T08:53:38;1.40;;;1.30;;
18748;SDS011;9503;53.560;10.246;2022-08-30T08:56:10;2.17;;;1.13;;
18748;SDS011;9503;53.560;10.246;2022-08-30T08:58:41;1.63;;;1.40;;
18748;SDS011;9503;53.560;10.246;2022-08-30T09:01:09;3.13;;;1.20;;
18748;SDS011;9503;53.560;10.246;2022-08-30T09:03:39;1.30;;;1.20;;
18748;SDS011;9503;53.560;10.246;2022-08-30T09:06:09;3.03;;;0.90;;
18748;SDS011;9503;53.560;10.246;2022-08-30T09:08:47;2.55;;;1.20;;
18748;SDS011;9503;53.560;10.246;2022-08-30T09:11:17;2.05;;;1.02;;
18748;SDS011;9503;53.560;10.246;2022-08-30T09:13:48;0.98;;;0.98;;
18748;SDS011;9503;53.560;10.246;2022-08-30T09:19:29;1.10;;;1.00;;
18748;SDS011;9503;53.560;10.246;2022-08-30T09:21:59;2.80;;;1.30;;
18748;SDS011;9503;53.560;10.246;2022-08-30T09:24:35;1.33;;;1.23;;
18748;SDS011;9503;53.560;10.246;2022-08-30T09:27:13;1.33;;;1.33;;
18748;SDS011;9503;53.560;10.246;2022-08-30T09:29:49;2.08;;;1.15;;
18748;SDS011;9503;53.560;10.246;2022-08-30T09:32:22;1.15;;;1.05;;
18748;SDS011;9503;53.560;10.246;2022-08-30T09:34:54;3.20;;;1.20;;
18748;SDS011;9503;53.560;10.246;2022-08-30T09:37:25;3.00;;;1.30;;
18748;SDS011;9503;53.560;10.246;2022-08-30T09:39:54;1.33;;;1.10;;
18748;SDS011;9503;53.560;10.246;2022-08-30T09:42:24;2.95;;;1.30;;
18748;SDS011;9503;53.560;10.246;2022-08-30T09:44:53;10.18;;;1.50;;
18748;SDS011;9503;53.560;10.246;2022-08-30T09:47:34;1.52;;;1.40;;
18748;SDS011;9503;53.560;10.246;2022-08-30T09:50:08;1.38;;;1.17;;
18748;SDS011;9503;53.560;10.246;2022-08-30T09:52:50;1.30;;;1.20;;
18748;SDS011;9503;53.560;10.246;2022-08-30T09:55:41;1.00;;;1.00;;
18748;SDS011;9503;53.560;10.246;2022-08-30T09:58:20;2.70;;;1.10;;
18748;SDS011;9503;53.560;10.246;2022-08-30T10:00:57;1.77;;;1.45;;
18748;SDS011;9503;53.560;10.246;2022-08-30T10:03:35;4.50;;;1.48;;
18748;SDS011;9503;53.560;10.246;2022-08-30T10:06:13;1.35;;;1.27;;
18748;SDS011;9503;53.560;10.246;2022-08-30T10:08:50;1.00;;;1.00;;
18748;SDS011;9503;53.560;10.246;2022-08-30T10:11:26;5.72;;;1.52;;
18748;SDS011;9503;53.560;10.246;2022-08-30T10:14:00;1.83;;;1.13;;
18748;SDS011;9503;53.560;10.246;2022-08-30T10:16:39;2.08;;;1.17;;
18748;SDS011;9503;53.560;10.246;2022-08-30T10:19:17;1.50;;;1.33;;
18748;SDS011;9503;53.560;10.246;2022-08-30T10:21:55;1.17;;;1.13;;
18748;SDS011;9503;53.560;10.246;2022-08-30T10:24:31;3.03;;;1.38;;
18748;SDS011;9503;53.560;10.246;2022-08-30T10:27:02;1.08;;;1.08;;
18748;SDS011;9503;53.560;10.246;2022-08-30T10:29:33;2.03;;;1.35;;
18748;SDS011;9503;53.560;10.246;2022-08-30T10:32:09;2.50;;;1.33;;
18748;SDS011;9503;53.560;10.246;2022-08-30T10:34:38;2.40;;;1.38;;
18748;SDS011;9503;53.560;10.246;2022-08-30T10:37:14;2.25;;;1.40;;
18748;SDS011;9503;53.560;10.246;2022-08-30T10:39:45;1.30;;;1.20;;
18748;SDS011;9503;53.560;10.246;2022-08-30T10:42:16;1.50;;;1.40;;
18748;SDS011;9503;53.560;10.246;2022-08-30T10:44:46;2.22;;;1.33;;
18748;SDS011;9503;53.560;10.246;2022-08-30T10:47:18;1.38;;;1.30;;
18748;SDS011;9503;53.560;10.246;2022-08-30T10:49:53;1.50;;;1.40;;
18748;SDS011;9503;53.560;10.246;2022-08-30T10:52:32;2.28;;;1.35;;
18748;SDS011;9503;53.560;10.246;2022-08-30T10:55:04;1.42;;;1.33;;
18748;SDS011;9503;53.560;10.246;2022-08-30T10:57:33;1.52;;;1.20;;
18748;SDS011;9503;53.560;10.246;2022-08-30T11:00:03;2.28;;;1.20;;
18748;SDS011;9503;53.560;10.246;2022-08-30T11:02:36;1.58;;;1.40;;
18748;SDS011;9503;53.560;10.246;2022-08-30T11:05:37;1.60;;;1.50;;
18748;SDS011;9503;53.560;10.246;2022-08-30T11:08:25;1.88;;;1.40;;
18748;SDS011;9503;53.560;10.246;2022-08-30T11:11:05;4.80;;;1.83;;
18748;SDS011;9503;53.560;10.246;2022-08-30T11:13:42;1.55;;;1.40;;
18748;SDS011;9503;53.560;10.246;2022-08-30T11:16:12;1.45;;;1.35;;
18748;SDS011;9503;53.560;10.246;2022-08-30T11:18:41;3.42;;;1.38;;
18748;SDS011;9503;53.560;10.246;2022-08-30T11:21:15;2.00;;;1.63;;
18748;SDS011;9503;53.560;10.246;2022-08-30T11:24:06;2.30;;;1.48;;
18748;SDS011;9503;53.560;10.246;2022-08-30T11:26:53;2.72;;;1.33;;
18748;SDS011;9503;53.560;10.246;2022-08-30T11:29:28;2.05;;;1.90;;
18748;SDS011;9503;53.560;10.246;2022-08-30T11:35:00;1.65;;;1.42;;
18748;SDS011;9503;53.560;10.246;2022-08-30T11:37:31;2.38;;;1.42;;
18748;SDS011;9503;53.560;10.246;2022-08-30T11:40:05;3.08;;;1.60;;
18748;SDS011;9503;53.560;10.246;2022-08-30T11:42:36;3.17;;;1.80;;
18748;SDS011;9503;53.560;10.246;2022-08-30T11:48:37;4.25;;;1.42;;
18748;SDS011;9503;53.560;10.246;2022-08-30T11:51:13;2.20;;;1.73;;
18748;SDS011;9503;53.560;10.246;2022-08-30T11:54:00;3.28;;;1.15;;
18748;SDS011;9503;53.560;10.246;2022-08-30T11:56:41;1.88;;;1.50;;
18748;SDS011;9503;53.560;10.246;2022-08-30T11:59:19;1.85;;;1.30;;
18748;SDS011;9503;53.560;10.246;2022-08-30T12:01:55;1.30;;;1.20;;
18748;SDS011;9503;53.560;10.246;2022-08-30T12:04:27;5.90;;;1.60;;
18748;SDS011;9503;53.560;10.246;2022-08-30T12:07:04;1.85;;;1.45;;
18748;SDS011;9503;53.560;10.246;2022-08-30T12:12:46;2.25;;;1.20;;
18748;SDS011;9503;53.560;10.246;2022-08-30T12:18:19;1.58;;;1.45;;
18748;SDS011;9503;53.560;10.246;2022-08-30T12:20:55;1.77;;;1.20;;
18748;SDS011;9503;53.560;10.246;2022-08-30T12:23:29;1.95;;;1.50;;
18748;SDS011;9503;53.560;10.246;2022-08-30T12:26:09;3.42;;;1.75;;
18748;SDS011;9503;53.560;10.246;2022-08-30T12:28:39;1.20;;;1.10;;
18748;SDS011;9503;53.560;10.246;2022-08-30T12:31:08;4.85;;;1.45;;
18748;SDS011;9503;53.560;10.246;2022-08-30T12:33:38;4.32;;;1.15;;
18748;SDS011;9503;53.560;10.246;2022-08-30T12:36:10;2.45;;;1.23;;
18748;SDS011;9503;53.560;10.246;2022-08-30T12:38:38;2.05;;;1.10;;
18748;SDS011;9503;53.560;10.246;2022-08-30T12:41:05;2.80;;;1.30;;
18748;SDS011;9503;53.560;10.246;2022-08-30T12:43:33;2.47;;;1.20;;
18748;SDS011;9503;53.560;10.246;2022-08-30T12:46:05;3.30;;;1.40;;
18748;SDS011;9503;53.560;10.246;2022-08-30T12:48:34;1.40;;;1.30;;
18748;SDS011;9503;53.560;10.246;2022-08-30T12:51:04;2.53;;;1.45;;
18748;SDS011;9503;53.560;10.246;2022-08-30T12:53:32;2.35;;;1.20;;
18748;SDS011;9503;53.560;10.246;2022-08-30T12:56:02;1.60;;;1.27;;
18748;SDS011;9503;53.560;10.246;2022-08-30T12:58:36;2.30;;;1.33;;
18748;SDS011;9503;53.560;10.246;2022-08-30T13:01:17;1.00;;;1.00;;
18748;SDS011;9503;53.560;10.246;2022-08-30T13:03:54;1.40;;;1.30;;
18748;SDS011;9503;53.560;10.246;2022-08-30T13:06:37;1.40;;;1.30;;
18748;SDS011;9503;53.560;10.246;2022-08-30T13:09:08;1.40;;;1.30;;
18748;SDS011;9503;53.560;10.246;2022-08-30T13:11:36;1.38;;;1.05;;
18748;SDS011;9503;53.560;10.246;2022-08-30T13:14:19;3.90;;;1.38;;
18748;SDS011;9503;53.560;10.246;2022-08-30T13:17:05;1.50;;;1.20;;
18748;SDS011;9503;53.560;10.246;2022-08-30T13:19:34;2.50;;;1.27;;
18748;SDS011;9503;53.560;10.246;2022-08-30T13:22:02;2.40;;;1.10;;
18748;SDS011;9503;53.560;10.246;2022-08-30T13:24:29;1.15;;;1.05;;
18748;SDS011;9503;53.560;10.246;2022-08-30T13:26:57;1.58;;;1.40;;
18748;SDS011;9503;53.560;10.246;2022-08-30T13:29:30;1.92;;;1.35;;
18748;SDS011;9503;53.560;10.246;2022-08-30T13:31:57;1.75;;;1.20;;
18748;SDS011;9503;53.560;10.246;2022-08-30T13:34:25;1.23;;;0.95;;
18748;SDS011;9503;53.560;10.246;2022-08-30T13:36:57;5.60;;;1.33;;
18748;SDS011;9503;53.560;10.246;2022-08-30T13:39:25;1.15;;;1.05;;
18748;SDS011;9503;53.560;10.246;2022-08-30T13:41:52;3.85;;;1.20;;
18748;SDS011;9503;53.560;10.246;2022-08-30T13:44:19;5.65;;;1.50;;
18748;SDS011;9503;53.560;10.246;2022-08-30T13:46:47;1.35;;;1.10;;
18748;SDS011;9503;53.560;10.246;2022-08-30T13:49:18;3.05;;;1.30;;
18748;SDS011;9503;53.560;10.246;2022-08-30T13:51:48;1.35;;;1.15;;
18748;SDS011;9503;53.560;10.246;2022-08-30T13:54:17;1.77;;;1.10;;
18748;SDS011;9503;53.560;10.246;2022-08-30T13:56:45;2.45;;;1.30;;
18748;SDS011;9503;53.560;10.246;2022-08-30T13:59:13;1.10;;;1.00;;
18748;SDS011;9503;53.560;10.246;2022-08-30T14:01:40;4.43;;;1.55;;
18748;SDS011;9503;53.560;10.246;2022-08-30T14:04:07;0.90;;;0.90;;
18748;SDS011;9503;53.560;10.246;2022-08-30T14:06:33;2.55;;;1.10;;
18748;SDS011;9503;53.560;10.246;2022-08-30T14:09:01;1.10;;;1.00;;
18748;SDS011;9503;53.560;10.246;2022-08-30T14:11:29;1.50;;;1.30;;
18748;SDS011;9503;53.560;10.246;2022-08-30T14:13:56;0.93;;;0.93;;
18748;SDS011;9503;53.560;10.246;2022-08-30T14:16:23;1.77;;;1.30;;
18748;SDS011;9503;53.560;10.246;2022-08-30T14:18:49;2.47;;;1.33;;
18748;SDS011;9503;53.560;10.246;2022-08-30T14:21:16;1.30;;;1.13;;
18748;SDS011;9503;53.560;10.246;2022-08-30T14:23:43;1.05;;;1.00;;
18748;SDS011;9503;53.560;10.246;2022-08-30T14:26:12;1.52;;;1.20;;
18748;SDS011;9503;53.560;10.246;2022-08-30T14:28:42;3.40;;;1.20;;
18748;SDS011;9503;53.560;10.246;2022-08-30T14:31:09;1.63;;;1.17;;
18748;SDS011;9503;53.560;10.246;2022-08-30T14:33:35;3.55;;;1.20;;
18748;SDS011;9503;53.560;10.246;2022-08-30T14:36:02;1.25;;;1.15;;
18748;SDS011;9503;53.560;10.246;2022-08-30T14:38:30;1.10;;;1.00;;
18748;SDS011;9503;53.560;10.246;2022-08-30T14:40:57;1.20;;;0.80;;
18748;SDS011;9503;53.560;10.246;2022-08-30T14:43:25;1.73;;;1.08;;
18748;SDS011;9503;53.560;10.246;2022-08-30T14:45:51;1.60;;;1.10;;
18748;SDS011;9503;53.560;10.246;2022-08-30T14:48:18;1.00;;;1.00;;
18748;SDS011;9503;53.560;10.246;2022-08-30T14:50:45;3.67;;;1.30;;
18748;SDS011;9503;53.560;10.246;2022-08-30T14:53:11;1.55;;;1.17;;
18748;SDS011;9503;53.560;10.246;2022-08-30T14:55:38;1.30;;;1.13;;
18748;SDS011;9503;53.560;10.246;2022-08-30T14:58:06;1.48;;;1.02;;
18748;SDS011;9503;53.560;10.246;2022-08-30T15:00:36;1.23;;;1.13;;
18748;SDS011;9503;53.560;10.246;2022-08-30T15:03:04;2.42;;;1.00;;
18748;SDS011;9503;53.560;10.246;2022-08-30T15:05:32;2.28;;;1.10;;
18748;SDS011;9503;53.560;10.246;2022-08-30T15:07:59;1.10;;;1.10;;
18748;SDS011;9503;53.560;10.246;2022-08-30T15:10:25;1.17;;;1.17;;
18748;SDS011;9503;53.560;10.246;2022-08-30T15:12:52;3.00;;;1.40;;
18748;SDS011;9503;53.560;10.246;2022-08-30T15:15:19;1.58;;;1.27;;
18748;SDS011;9503;53.560;10.246;2022-08-30T15:17:48;1.50;;;1.40;;
18748;SDS011;9503;53.560;10.246;2022-08-30T15:20:17;1.65;;;1.05;;